Time;durP1;ratioP1;P1;durP2;ratioP2;P2;SDS_P1;SDS_P2;PMS_P1;PMS_P2;Temp;Humidity;BMP_temperature;BMP_pressure;BME280_temperature;BME280_humidity;BME280_pressure;Samples;Min_cycle;Max_cycle;Signal;HPM_P1;HPM_P2
2021/08/19 00:01:12;;;;;;;2.80;2.50;;;;;;;18.63;72.47;95655.88;4991329;28;20575;-85
2021/08/19 00:03:39;;;;;;;3.72;2.92;;;;;;;18.63;73.06;95657.72;4991766;28;20238;-86
2021/08/19 00:06:06;;;;;;;3.30;2.90;;;;;;;18.65;73.41;95649.66;4991455;28;20226;-82
2021/08/19 00:08:33;;;;;;;3.80;2.38;;;;;;;18.65;73.61;95650.44;4991743;28;20206;-83
2021/08/19 00:11:00;;;;;;;3.78;2.75;;;;;;;18.71;72.92;95662.56;4992157;28;20561;-86
2021/08/19 00:13:28;;;;;;;2.60;2.40;;;;;;;18.71;72.94;95654.75;4991396;28;20722;-85
2021/08/19 00:15:56;;;;;;;2.80;2.60;;;;;;;18.70;73.05;95650.56;4991691;28;20606;-85
2021/08/19 00:18:22;;;;;;;3.47;2.78;;;;;;;18.72;72.93;95648.50;4991800;28;20211;-85
2021/08/19 00:20:49;;;;;;;2.65;2.45;;;;;;;18.71;73.40;95656.56;4991811;28;20233;-84
2021/08/19 00:23:16;;;;;;;2.92;2.63;;;;;;;18.70;73.45;95654.97;4990759;28;20223;-81
2021/08/19 00:25:44;;;;;;;3.20;2.90;;;;;;;18.73;73.83;95657.13;4991634;28;20203;-83
2021/08/19 00:28:11;;;;;;;2.97;2.67;;;;;;;18.72;74.12;95656.34;4991522;28;20199;-82
2021/08/19 00:30:37;;;;;;;3.30;3.00;;;;;;;18.71;74.14;95654.75;4991124;28;20203;-84
2021/08/19 00:33:04;;;;;;;3.22;2.47;;;;;;;18.70;74.26;95649.75;4991100;28;20227;-85
2021/08/19 00:35:30;;;;;;;3.40;3.10;;;;;;;18.72;74.58;95647.72;4991042;28;20227;-85
2021/08/19 00:37:57;;;;;;;2.50;2.30;;;;;;;18.69;74.83;95645.56;4991150;28;20210;-84
2021/08/19 00:40:24;;;;;;;4.20;2.80;;;;;;;18.68;75.07;95643.97;4991401;28;20207;-83
2021/08/19 00:42:52;;;;;;;3.95;3.08;;;;;;;18.71;75.01;95644.31;4990930;28;20230;-84
2021/08/19 00:45:21;;;;;;;2.78;2.50;;;;;;;18.72;75.31;95647.72;4991953;28;20195;-83
2021/08/19 00:47:47;;;;;;;3.17;2.65;;;;;;;18.74;75.35;95643.06;4991170;28;20207;-82
2021/08/19 00:50:14;;;;;;;2.88;2.60;;;;;;;18.71;75.23;95635.69;4991533;28;20218;-83
2021/08/19 00:52:41;;;;;;;3.65;2.88;;;;;;;18.72;75.64;95639.91;4990850;28;20231;-82
2021/08/19 00:55:10;;;;;;;3.40;2.92;;;;;;;18.72;75.91;95635.47;4991249;28;20223;-85
2021/08/19 00:57:39;;;;;;;3.00;2.60;;;;;;;18.72;75.64;95626.84;4991016;28;20207;-82
2021/08/19 01:00:08;;;;;;;2.95;2.72;;;;;;;18.71;76.49;95633.88;4991754;28;20199;-82
2021/08/19 01:02:35;;;;;;;3.00;2.70;;;;;;;18.74;75.86;95625.59;4994436;28;20223;-85
2021/08/19 01:05:01;;;;;;;3.38;2.75;;;;;;;18.72;76.22;95630.25;4994309;28;20399;-83
2021/08/19 01:07:28;;;;;;;3.40;3.10;;;;;;;18.77;76.17;95634.81;4995915;28;20210;-85
2021/08/19 01:09:54;;;;;;;3.05;2.80;;;;;;;18.75;76.08;95632.41;4994936;28;20290;-83
2021/08/19 01:12:21;;;;;;;4.22;2.97;;;;;;;18.73;76.05;95631.06;4995164;28;20224;-85
2021/08/19 01:14:48;;;;;;;3.03;2.83;;;;;;;18.70;76.32;95628.88;4994927;28;20715;-85
2021/08/19 01:17:18;;;;;;;3.40;3.10;;;;;;;18.68;76.64;95636.94;4995321;28;20266;-83
2021/08/19 01:19:47;;;;;;;3.08;2.60;;;;;;;18.70;76.68;95640.13;4995613;28;20304;-81
2021/08/19 01:22:15;;;;;;;3.20;2.90;;;;;;;18.67;76.77;95632.75;4995601;28;20199;-86
2021/08/19 01:24:41;;;;;;;5.20;2.65;;;;;;;18.67;76.87;95631.94;4995619;28;20203;-85
2021/08/19 01:27:13;;;;;;;4.03;3.13;;;;;;;18.62;77.89;95638.66;4995508;28;20206;-84
2021/08/19 01:29:41;;;;;;;3.20;2.88;;;;;;;18.63;77.59;95631.63;4995551;28;20207;-84
2021/08/19 01:32:08;;;;;;;4.80;3.00;;;;;;;18.59;77.85;95639.09;4995890;28;20204;-81
2021/08/19 01:34:35;;;;;;;3.90;3.05;;;;;;;18.54;78.47;95636.34;4995431;28;20718;-82
2021/08/19 01:37:02;;;;;;;3.88;3.20;;;;;;;18.56;78.46;95647.34;4995578;28;20211;-81
2021/08/19 01:39:30;;;;;;;3.15;2.85;;;;;;;18.57;78.87;95635.09;4994782;28;20203;-84
2021/08/19 01:41:57;;;;;;;4.15;3.40;;;;;;;18.58;79.15;95640.09;4994775;28;20215;-82
2021/08/19 01:44:25;;;;;;;3.38;3.08;;;;;;;18.61;78.52;95633.66;4994421;28;20231;-82
2021/08/19 01:46:53;;;;;;;3.63;3.15;;;;;;;18.60;78.59;95635.47;4995288;28;20243;-81
2021/08/19 01:49:20;;;;;;;3.63;3.20;;;;;;;18.59;79.04;95633.88;4995910;28;20229;-82
2021/08/19 01:51:46;;;;;;;3.30;3.00;;;;;;;18.60;78.91;95632.88;4995526;28;20196;-81
2021/08/19 01:54:13;;;;;;;3.75;3.40;;;;;;;18.62;78.91;95637.84;4995135;28;20238;-82
2021/08/19 01:56:39;;;;;;;3.35;3.03;;;;;;;18.60;79.17;95635.47;4994466;28;20210;-84
2021/08/19 01:59:06;;;;;;;3.17;2.88;;;;;;;18.60;79.57;95635.47;4994617;28;20220;-81
2021/08/19 02:01:34;;;;;;;3.35;3.05;;;;;;;18.60;79.79;95630.25;4994814;28;20230;-81
2021/08/19 02:04:05;;;;;;;3.75;2.80;;;;;;;18.60;79.66;95638.09;4994782;28;20219;-81
2021/08/19 02:06:31;;;;;;;5.22;3.42;;;;;;;18.57;79.92;95638.50;4994599;28;20227;-81
2021/08/19 02:08:58;;;;;;;3.80;3.00;;;;;;;18.54;80.45;95638.16;4995114;28;20199;-82
2021/08/19 02:11:24;;;;;;;3.83;3.15;;;;;;;18.56;79.54;95642.13;4995712;28;20215;-84
2021/08/19 02:13:51;;;;;;;3.35;3.05;;;;;;;18.55;80.13;95643.13;4994864;28;20688;-81
2021/08/19 02:16:18;;;;;;;5.32;2.92;;;;;;;18.53;80.23;95639.16;4995100;28;20226;-82
2021/08/19 02:18:47;;;;;;;4.80;3.67;;;;;;;18.52;80.35;95640.19;4994575;28;20230;-84
2021/08/19 02:21:13;;;;;;;4.88;3.08;;;;;;;18.53;79.95;95644.38;4994868;28;20630;-83
2021/08/19 02:23:40;;;;;;;4.32;3.00;;;;;;;18.52;80.35;95638.38;4993496;28;20866;-83
2021/08/19 02:26:06;;;;;;;4.93;3.10;;;;;;;18.54;79.35;95641.53;4994503;28;20286;-82
2021/08/19 02:28:33;;;;;;;4.03;3.03;;;;;;;18.55;79.74;95644.94;4994883;28;20219;-80
2021/08/19 02:31:00;;;;;;;3.50;3.20;;;;;;;18.50;79.38;95643.00;4995087;28;20602;-83
2021/08/19 02:33:26;;;;;;;3.30;3.00;;;;;;;18.51;79.48;95641.19;4994378;28;20594;-84
2021/08/19 02:35:54;;;;;;;3.65;3.25;;;;;;;18.49;79.46;95638.81;4994263;28;20238;-84
2021/08/19 02:38:20;;;;;;;5.35;3.47;;;;;;;18.46;79.59;95649.72;4994041;28;20707;-82
2021/08/19 02:40:47;;;;;;;4.28;3.00;;;;;;;18.45;79.19;95637.69;4993826;28;20671;-81
2021/08/19 02:43:16;;;;;;;3.50;3.20;;;;;;;18.48;79.00;95646.84;4994128;28;20223;-84
2021/08/19 02:45:42;;;;;;;4.22;3.70;;;;;;;18.44;78.63;95641.31;4994538;28;20687;-83
2021/08/19 02:48:09;;;;;;;4.85;3.33;;;;;;;18.46;78.77;95646.31;4993512;28;20584;-85
2021/08/19 02:50:35;;;;;;;3.97;3.50;;;;;;;18.42;78.61;95640.75;4994842;28;20200;-81
2021/08/19 02:53:03;;;;;;;4.25;3.42;;;;;;;18.46;78.17;95639.28;4993188;28;20238;-81
2021/08/19 02:55:30;;;;;;;4.47;3.30;;;;;;;18.46;78.09;95638.50;4993395;28;20234;-82
2021/08/19 02:57:56;;;;;;;4.85;3.78;;;;;;;18.47;77.41;95634.88;4993284;28;20238;-82
2021/08/19 03:00:23;;;;;;;4.47;3.72;;;;;;;18.38;77.18;95637.00;4988740;28;20230;-82
2021/08/19 03:02:49;;;;;;;4.88;3.80;;;;;;;18.38;77.37;95644.00;4992740;28;20231;-82
2021/08/19 03:05:16;;;;;;;5.43;3.40;;;;;;;18.40;76.89;95639.38;4992041;28;20203;-84
2021/08/19 03:07:42;;;;;;;4.07;3.38;;;;;;;18.40;76.83;95645.38;4992645;28;20218;-84
2021/08/19 03:10:10;;;;;;;4.07;3.55;;;;;;;18.45;76.66;95647.31;4992996;28;20216;-82
2021/08/19 03:12:37;;;;;;;4.60;4.15;;;;;;;18.46;76.55;95638.50;4993851;28;20219;-85
2021/08/19 03:15:05;;;;;;;4.03;3.35;;;;;;;18.48;76.57;95636.41;4993743;28;20255;-82
2021/08/19 03:17:33;;;;;;;3.80;3.47;;;;;;;18.49;76.46;95646.63;4993044;28;20208;-83
2021/08/19 03:20:00;;;;;;;4.13;3.72;;;;;;;18.50;76.09;95639.59;4992819;28;20610;-84
2021/08/19 03:22:26;;;;;;;3.80;3.40;;;;;;;18.47;75.98;95640.84;4992068;28;20228;-84
2021/08/19 03:24:53;;;;;;;4.38;3.75;;;;;;;18.49;75.70;95630.97;4992098;28;20594;-84
2021/08/19 03:27:20;;;;;;;4.32;3.92;;;;;;;18.49;75.77;95632.78;4992395;28;20203;-84
2021/08/19 03:29:48;;;;;;;4.43;3.53;;;;;;;18.51;75.78;95639.38;4992626;28;20210;-84
2021/08/19 03:32:14;;;;;;;4.05;3.45;;;;;;;18.52;75.79;95634.97;4992581;28;20246;-85
2021/08/19 03:34:41;;;;;;;4.75;3.75;;;;;;;18.49;75.35;95635.41;4991722;28;20229;-84
2021/08/19 03:37:08;;;;;;;4.45;4.05;;;;;;;18.49;75.35;95641.41;4992706;28;20200;-83
2021/08/19 03:39:45;;;;;;;3.97;3.65;;;;;;;18.51;75.22;95635.97;4993213;28;20203;-83
2021/08/19 03:42:21;;;;;;;6.07;4.32;;;;;;;18.48;75.14;95639.81;4992745;28;20210;-86
2021/08/19 03:44:57;;;;;;;4.10;3.67;;;;;;;18.45;75.33;95632.47;4994603;28;20226;-84
2021/08/19 03:47:23;;;;;;;5.20;4.22;;;;;;;18.42;75.12;95632.91;4993206;28;20203;-81
2021/08/19 03:49:58;;;;;;;4.78;4.18;;;;;;;18.38;75.53;95631.78;4990399;28;20895;-82
2021/08/19 03:52:25;;;;;;;4.50;3.72;;;;;;;18.37;75.49;95632.78;4973034;28;20302;-84
2021/08/19 03:54:54;;;;;;;5.10;4.07;;;;;;;18.26;75.39;95636.16;4973265;28;20224;-81
2021/08/19 03:57:21;;;;;;;5.65;4.43;;;;;;;18.27;75.56;95635.97;4974143;28;20510;-81
2021/08/19 03:59:48;;;;;;;4.75;4.00;;;;;;;18.24;75.87;95639.00;4980244;28;20207;-83
2021/08/19 04:02:14;;;;;;;6.22;3.75;;;;;;;18.21;75.83;95642.03;4982794;28;20254;-81
2021/08/19 04:04:41;;;;;;;5.22;4.38;;;;;;;18.23;75.43;95647.84;4972039;28;20683;-81
2021/08/19 04:07:07;;;;;;;5.10;3.75;;;;;;;18.24;75.54;95646.03;4972087;28;20236;-82
2021/08/19 04:09:34;;;;;;;4.38;3.80;;;;;;;18.25;75.92;95653.63;4973001;28;20730;-84
2021/08/19 04:12:01;;;;;;;4.95;3.97;;;;;;;18.23;75.56;95654.84;4972453;28;20200;-81
2021/08/19 04:14:29;;;;;;;4.70;3.70;;;;;;;18.36;79.91;95656.47;4974267;28;20200;-81
2021/08/19 04:16:55;;;;;;;5.10;3.60;;;;;;;18.56;77.81;95659.56;4976606;28;20224;-85
2021/08/19 04:19:22;;;;;;;7.82;3.63;;;;;;;18.71;76.26;95653.94;4977246;28;20806;-82
2021/08/19 04:21:48;;;;;;;6.05;3.75;;;;;;;18.86;75.26;95655.09;4976953;28;20296;-82
2021/08/19 04:24:18;;;;;;;6.15;4.00;;;;;;;18.98;74.21;95653.31;4976303;28;20227;-81
2021/08/19 04:26:44;;;;;;;6.45;3.78;;;;;;;19.05;72.36;95658.38;4989040;28;20198;-82
2021/08/19 04:29:11;;;;;;;4.22;3.83;;;;;;;19.12;72.80;95658.28;4994487;28;20215;-82
2021/08/19 04:31:38;;;;;;;3.88;3.53;;;;;;;19.18;72.12;95652.16;4986152;28;20436;-84
2021/08/19 04:34:05;;;;;;;5.03;3.75;;;;;;;19.20;71.82;95657.94;4974293;28;20224;-84
2021/08/19 04:36:31;;;;;;;4.10;3.65;;;;;;;19.18;71.85;95657.38;4976569;28;20227;-84
2021/08/19 04:38:58;;;;;;;4.03;3.72;;;;;;;19.15;71.44;95657.84;4979212;28;20204;-84
2021/08/19 04:41:25;;;;;;;5.20;4.13;;;;;;;19.17;71.35;95655.78;4986646;28;20219;-85
2021/08/19 04:43:52;;;;;;;4.68;4.13;;;;;;;19.01;71.24;95653.88;4993451;28;20223;-85
2021/08/19 04:46:18;;;;;;;4.25;3.80;;;;;;;18.79;71.88;95657.03;4991915;28;20655;-85
2021/08/19 04:48:46;;;;;;;5.05;4.40;;;;;;;18.60;74.22;95647.72;4993495;28;20223;-83
2021/08/19 04:51:12;;;;;;;4.88;4.38;;;;;;;18.54;74.03;95653.78;4995232;28;20202;-84
2021/08/19 04:53:39;;;;;;;4.22;3.72;;;;;;;18.53;74.25;95652.19;4995396;28;20238;-85
2021/08/19 04:56:05;;;;;;;4.32;3.92;;;;;;;18.40;75.43;95647.19;4995096;28;20289;-86
2021/08/19 04:58:32;;;;;;;6.40;5.75;;;;;;;18.43;74.51;95649.34;4995876;28;20199;-85
2021/08/19 05:00:58;;;;;;;16.52;14.82;;;;;;;18.45;74.35;95648.13;4996485;28;20203;-86
2021/08/19 05:03:25;;;;;;;9.40;7.82;;;;;;;18.45;74.48;95652.53;4997851;28;20223;-85
2021/08/19 05:05:53;;;;;;;5.75;4.65;;;;;;;18.41;74.77;95648.78;4996979;28;20598;-86
2021/08/19 05:08:19;;;;;;;9.55;4.47;;;;;;;18.38;74.54;95660.44;4998292;28;20226;-86
2021/08/19 05:10:46;;;;;;;5.45;4.53;;;;;;;18.41;74.85;95660.00;4999056;28;20210;-84
2021/08/19 05:13:12;;;;;;;4.68;4.15;;;;;;;18.35;74.87;95658.28;4998992;28;20973;-84
2021/08/19 05:15:39;;;;;;;4.32;3.92;;;;;;;18.32;74.96;95655.31;4999484;28;20224;-86
2021/08/19 05:18:05;;;;;;;5.55;4.10;;;;;;;18.29;75.35;95659.16;4999252;28;20207;-86
2021/08/19 05:20:31;;;;;;;5.13;3.88;;;;;;;18.28;75.22;95657.56;4997126;28;20540;-83
2021/08/19 05:22:59;;;;;;;5.40;4.05;;;;;;;18.27;75.52;95650.81;4995826;28;20256;-82
2021/08/19 05:25:26;;;;;;;4.97;4.20;;;;;;;18.26;75.61;95652.59;4996280;28;20626;-83
2021/08/19 05:27:52;;;;;;;5.75;4.22;;;;;;;18.28;75.61;95655.75;4996503;28;20199;-81
2021/08/19 05:30:19;;;;;;;5.55;4.10;;;;;;;18.32;75.66;95657.94;4996053;28;20223;-81
2021/08/19 05:32:45;;;;;;;4.75;3.97;;;;;;;18.35;75.34;95655.69;4995238;28;20219;-82
2021/08/19 05:35:12;;;;;;;4.35;3.90;;;;;;;18.35;75.69;95660.88;4994856;28;20222;-81
2021/08/19 05:37:38;;;;;;;5.30;4.22;;;;;;;18.32;75.65;95650.91;4990643;28;20302;-80
2021/08/19 05:40:08;;;;;;;4.72;4.03;;;;;;;18.34;75.71;95648.06;4991936;28;20219;-84
2021/08/19 05:42:34;;;;;;;4.82;4.22;;;;;;;18.34;75.90;95661.09;5013594;28;20223;-81
2021/08/19 05:45:01;;;;;;;6.80;4.00;;;;;;;18.31;76.06;95659.75;4995408;28;20206;-83
2021/08/19 05:47:27;;;;;;;5.97;4.15;;;;;;;18.33;75.96;95660.31;4994627;28;20683;-82
2021/08/19 05:49:54;;;;;;;5.47;4.43;;;;;;;18.30;76.24;95658.16;4991283;28;20286;-80
2021/08/19 05:52:20;;;;;;;4.32;3.92;;;;;;;18.35;75.91;95663.50;4974016;28;20200;-82
2021/08/19 05:54:47;;;;;;;4.90;4.25;;;;;;;18.41;75.47;95664.44;5013513;28;20203;-81
2021/08/19 05:57:16;;;;;;;4.80;4.30;;;;;;;18.46;75.64;95664.56;5003561;28;20283;-87
2021/08/19 05:59:43;;;;;;;5.28;4.03;;;;;;;18.46;76.20;95669.78;4981460;28;20196;-84
2021/08/19 06:02:09;;;;;;;6.18;4.30;;;;;;;18.50;76.25;95673.50;4992427;28;20203;-83
2021/08/19 06:04:36;;;;;;;4.88;4.28;;;;;;;18.49;76.95;95664.09;4995984;28;20204;-82
2021/08/19 06:07:03;;;;;;;6.05;4.28;;;;;;;18.54;76.15;95667.63;4995697;28;20250;-84
2021/08/19 06:09:30;;;;;;;6.03;4.22;;;;;;;18.55;76.63;95674.44;4997153;28;20204;-82
2021/08/19 06:12:06;;;;;;;5.00;4.38;;;;;;;18.58;75.83;95675.81;4996191;28;20208;-81
2021/08/19 06:14:34;;;;;;;4.70;4.03;;;;;;;18.57;75.43;95677.59;4997765;28;20262;-85
2021/08/19 06:17:07;;;;;;;6.82;4.47;;;;;;;18.54;75.96;95678.06;4981504;28;20707;-85
2021/08/19 06:19:33;;;;;;;4.75;3.90;;;;;;;18.56;75.69;95690.88;4976588;28;20227;-85
2021/08/19 06:22:07;;;;;;;5.60;4.25;;;;;;;18.59;75.97;95673.00;4976264;28;20215;-87
2021/08/19 06:24:33;;;;;;;8.57;4.40;;;;;;;18.60;76.48;95676.41;4976941;28;20679;-86
2021/08/19 06:27:00;;;;;;;8.57;4.43;;;;;;;18.55;76.08;95678.84;4976744;28;20203;-85
2021/08/19 06:29:40;;;;;;;4.45;4.05;;;;;;;18.53;76.08;95676.47;4994226;28;20187;-85
2021/08/19 06:32:18;;;;;;;5.00;4.25;;;;;;;18.61;75.69;95683.22;4986577;28;20251;-85
2021/08/19 06:34:55;;;;;;;6.13;4.32;;;;;;;18.59;75.61;95683.44;4978248;28;20215;-85
2021/08/19 06:37:24;;;;;;;5.30;4.07;;;;;;;18.52;75.72;95680.09;4996624;28;20218;-85
2021/08/19 06:39:51;;;;;;;4.43;4.00;;;;;;;18.51;75.80;95686.31;4998077;28;20207;-86
2021/08/19 06:42:17;;;;;;;4.88;4.18;;;;;;;18.53;76.24;95683.50;4994303;28;20211;-84
2021/08/19 06:44:45;;;;;;;6.15;4.43;;;;;;;18.57;76.43;95680.22;4984762;28;20291;-84
2021/08/19 06:47:11;;;;;;;5.55;4.20;;;;;;;18.63;76.33;95681.97;4974979;28;20200;-85
2021/08/19 06:49:40;;;;;;;4.82;4.07;;;;;;;18.70;76.00;95681.84;4975600;28;20235;-85
2021/08/19 06:52:07;;;;;;;8.38;4.20;;;;;;;18.78;75.66;95680.75;4993522;28;20743;-84
2021/08/19 06:54:33;;;;;;;6.80;4.40;;;;;;;18.79;75.93;95675.31;4993814;28;20207;-83
2021/08/19 06:57:01;;;;;;;4.70;4.10;;;;;;;18.77;75.69;95679.16;4993685;28;20310;-81
2021/08/19 06:59:27;;;;;;;3.90;3.50;;;;;;;18.82;75.96;95681.88;4993433;28;20199;-84
2021/08/19 07:01:55;;;;;;;4.60;3.78;;;;;;;18.87;75.67;95685.38;4984421;28;20211;-85
2021/08/19 07:04:22;;;;;;;5.43;4.43;;;;;;;18.87;76.21;95681.97;4974196;28;20228;-85
2021/08/19 07:06:49;;;;;;;4.05;3.63;;;;;;;18.96;75.14;95673.59;4973867;28;20733;-85
2021/08/19 07:09:15;;;;;;;4.90;3.92;;;;;;;18.97;75.12;95680.41;4974214;28;20716;-82
2021/08/19 07:11:56;;;;;;;4.70;3.80;;;;;;;18.94;75.61;95674.84;4994687;28;20207;-83
2021/08/19 07:14:28;;;;;;;4.80;3.80;;;;;;;18.95;75.36;95682.47;4997658;28;20313;-86
2021/08/19 07:17:12;;;;;;;4.50;4.10;;;;;;;19.00;75.21;95687.00;4997056;28;20755;-85
2021/08/19 07:19:53;;;;;;;5.50;4.00;;;;;;;19.07;75.32;95679.03;4994884;28;20207;-84
2021/08/19 07:22:44;;;;;;;4.13;3.72;;;;;;;19.04;74.35;95677.72;4996504;28;20258;-85
2021/08/19 07:25:21;;;;;;;4.63;3.92;;;;;;;19.09;74.73;95680.41;4996171;28;20225;-87
2021/08/19 07:28:13;;;;;;;6.20;3.78;;;;;;;19.05;74.62;95684.50;4996273;28;20200;-85
2021/08/19 07:39:15;;;;;;;5.03;3.65;;;;;;;19.09;74.47;95677.81;4966407;28;20240;-85
2021/08/19 07:41:42;;;;;;;4.25;3.50;;;;;;;19.07;74.33;95679.84;4971367;28;20250;-84
2021/08/19 07:44:09;;;;;;;3.35;3.03;;;;;;;19.09;74.60;95679.63;4985475;28;20235;-85
2021/08/19 07:46:35;;;;;;;4.00;3.42;;;;;;;19.14;74.45;95679.72;4991091;28;20368;-86
2021/08/19 07:49:03;;;;;;;5.25;3.33;;;;;;;19.15;75.36;95676.91;4990557;28;20207;-82
2021/08/19 07:51:31;;;;;;;3.85;3.45;;;;;;;19.24;75.10;95690.41;4978486;28;20199;-82
2021/08/19 07:53:58;;;;;;;3.10;2.70;;;;;;;19.19;74.71;95680.66;4979010;28;20228;-85
2021/08/19 07:56:25;;;;;;;5.28;3.20;;;;;;;19.27;74.51;95687.31;4991018;28;20231;-84
2021/08/19 07:58:52;;;;;;;4.00;3.13;;;;;;;19.33;74.00;95681.19;4990872;28;20214;-84
2021/08/19 08:01:18;;;;;;;3.20;3.00;;;;;;;19.37;73.76;95692.78;4990712;28;20204;-84
2021/08/19 08:03:45;;;;;;;3.03;2.72;;;;;;;19.39;73.93;95684.72;4987939;28;20571;-85
2021/08/19 08:06:13;;;;;;;3.55;2.72;;;;;;;19.43;73.20;95689.28;4980513;28;20605;-83
2021/08/19 08:08:39;;;;;;;3.38;2.90;;;;;;;19.53;73.15;95692.13;4979925;28;20660;-84
2021/08/19 08:11:06;;;;;;;3.47;3.00;;;;;;;19.58;73.56;95691.44;4990661;28;20227;-81
2021/08/19 08:13:33;;;;;;;5.75;2.80;;;;;;;19.62;73.91;95697.78;4971813;28;20248;-86
2021/08/19 08:15:59;;;;;;;3.00;2.72;;;;;;;19.57;72.92;95687.22;4970677;28;20200;-81
2021/08/19 08:18:25;;;;;;;2.90;2.70;;;;;;;19.67;72.39;95705.72;4970997;28;20215;-85
2021/08/19 08:20:52;;;;;;;2.90;2.42;;;;;;;19.66;72.55;95702.31;4971380;28;20200;-84
2021/08/19 08:23:20;;;;;;;2.75;2.53;;;;;;;19.60;72.59;95700.63;4970415;28;20320;-85
2021/08/19 08:25:47;;;;;;;2.50;2.30;;;;;;;19.68;71.62;95704.69;4983563;28;20211;-86
2021/08/19 08:28:16;;;;;;;3.13;2.60;;;;;;;19.82;70.71;95700.78;4981903;28;20195;-81
2021/08/19 08:30:45;;;;;;;3.58;2.45;;;;;;;19.98;69.86;95707.13;5003992;28;20191;-85
2021/08/19 08:33:13;;;;;;;3.55;2.28;;;;;;;20.11;69.29;95704.22;5008931;28;20286;-84
2021/08/19 08:35:39;;;;;;;2.22;2.03;;;;;;;20.19;68.69;95708.31;5010293;28;20625;-85
2021/08/19 08:38:07;;;;;;;2.60;2.40;;;;;;;20.17;67.36;95713.78;5009755;28;20226;-85
2021/08/19 08:40:36;;;;;;;2.30;2.10;;;;;;;20.22;67.87;95707.81;4991621;28;20226;-81
2021/08/19 08:43:04;;;;;;;2.08;1.88;;;;;;;20.25;68.33;95708.16;4988918;28;20227;-82
2021/08/19 08:45:34;;;;;;;2.33;2.00;;;;;;;20.31;67.36;95715.06;4990029;28;20204;-82
2021/08/19 08:48:02;;;;;;;2.22;1.88;;;;;;;20.39;66.69;95711.34;4987997;28;20193;-82
2021/08/19 08:50:29;;;;;;;1.95;1.85;;;;;;;20.45;66.57;95720.03;4983097;28;20196;-83
2021/08/19 08:52:57;;;;;;;1.80;1.70;;;;;;;20.52;66.11;95705.00;4987080;28;20239;-81
2021/08/19 08:55:23;;;;;;;2.08;1.70;;;;;;;20.48;66.05;95714.34;4984000;28;20192;-82
2021/08/19 08:57:52;;;;;;;2.50;1.73;;;;;;;20.45;66.10;95717.41;4970077;28;20224;-82
2021/08/19 09:00:19;;;;;;;3.95;1.80;;;;;;;20.36;65.21;95717.00;4982447;28;20200;-81
2021/08/19 09:02:45;;;;;;;2.28;1.60;;;;;;;20.26;65.67;95714.19;4970691;28;20418;-83
2021/08/19 09:05:20;;;;;;;2.60;1.60;;;;;;;20.31;65.49;95717.69;4970257;28;20265;-82
2021/08/19 09:07:55;;;;;;;1.88;1.67;;;;;;;20.43;66.31;95707.19;4970937;28;20203;-83
2021/08/19 09:10:24;;;;;;;1.50;1.40;;;;;;;20.51;65.39;95719.09;4970319;28;20212;-82
2021/08/19 09:12:52;;;;;;;1.73;1.40;;;;;;;20.49;63.28;95718.53;4969720;28;20736;-83
2021/08/19 09:15:20;;;;;;;1.30;1.20;;;;;;;20.58;64.09;95719.78;4970749;28;20215;-83
2021/08/19 09:17:51;;;;;;;1.40;1.30;;;;;;;20.54;61.55;95708.97;4971324;28;20239;-85
2021/08/19 09:20:19;;;;;;;1.25;1.15;;;;;;;20.58;61.69;95709.31;4972314;28;20234;-84
2021/08/19 09:22:54;;;;;;;1.92;1.60;;;;;;;20.55;62.22;95710.56;4975131;28;20235;-83
2021/08/19 09:25:25;;;;;;;2.05;1.30;;;;;;;20.64;62.10;95706.50;4975848;28;20287;-84
2021/08/19 09:28:12;;;;;;;1.30;1.20;;;;;;;20.59;61.89;95706.41;4986950;28;20203;-82
2021/08/19 09:30:40;;;;;;;1.40;1.23;;;;;;;20.56;62.04;95712.16;5002201;28;20245;-82
2021/08/19 09:33:08;;;;;;;1.20;1.10;;;;;;;20.59;61.15;95711.66;5002158;28;20223;-86
2021/08/19 09:35:36;;;;;;;1.50;1.38;;;;;;;20.59;62.52;95708.28;4994371;28;20207;-84
2021/08/19 09:38:08;;;;;;;1.33;1.23;;;;;;;20.57;62.25;95716.34;4993623;28;20224;-82
2021/08/19 09:40:34;;;;;;;1.50;1.40;;;;;;;20.49;62.50;95714.09;4995051;28;20203;-85
2021/08/19 09:43:01;;;;;;;1.30;1.20;;;;;;;20.42;62.58;95708.22;4994710;28;20224;-84
2021/08/19 09:45:32;;;;;;;4.05;1.80;;;;;;;20.44;62.12;95713.22;4983435;28;20200;-85
2021/08/19 09:48:09;;;;;;;1.60;1.50;;;;;;;20.55;62.52;95715.00;4974451;28;20263;-82
2021/08/19 09:50:38;;;;;;;1.70;1.45;;;;;;;20.58;62.20;95704.06;4975519;28;20215;-84
2021/08/19 09:53:23;;;;;;;2.20;1.60;;;;;;;20.63;61.54;95704.94;4993528;28;20245;-83
2021/08/19 09:55:51;;;;;;;1.42;1.30;;;;;;;20.73;59.86;95711.38;4978987;28;20672;-82
2021/08/19 09:58:32;;;;;;;1.25;1.15;;;;;;;20.84;59.14;95713.13;4974355;28;20263;-85
2021/08/19 10:01:03;;;;;;;1.50;1.10;;;;;;;20.97;58.46;95704.97;4973875;28;20679;-83
2021/08/19 10:03:30;;;;;;;1.35;1.25;;;;;;;21.05;58.59;95707.16;4977281;28;20223;-85
2021/08/19 10:05:57;;;;;;;1.42;1.33;;;;;;;21.15;58.68;95703.94;4993021;28;20233;-85
2021/08/19 10:08:24;;;;;;;1.20;1.10;;;;;;;21.38;58.98;95699.28;4994692;28;20199;-85
2021/08/19 10:10:56;;;;;;;1.48;1.38;;;;;;;21.55;56.89;95703.72;4993645;28;20199;-84
2021/08/19 10:13:23;;;;;;;2.03;1.15;;;;;;;21.75;57.71;95698.72;4993459;28;20223;-83
2021/08/19 10:15:53;;;;;;;2.83;1.27;;;;;;;21.94;56.09;95691.34;4994496;28;20200;-82
2021/08/19 10:18:25;;;;;;;1.33;1.23;;;;;;;22.14;55.28;95699.47;4995396;28;20947;-83
2021/08/19 10:20:59;;;;;;;1.95;1.40;;;;;;;22.32;54.68;95693.88;4993221;28;20203;-84
2021/08/19 10:23:27;;;;;;;1.67;1.58;;;;;;;22.37;55.06;95698.41;4975340;28;20242;-83
2021/08/19 10:26:06;;;;;;;1.98;1.60;;;;;;;22.58;54.38;95696.75;4976351;28;20299;-86
2021/08/19 10:28:53;;;;;;;1.38;1.27;;;;;;;22.60;52.29;95692.84;4987139;28;20616;-81
2021/08/19 10:31:43;;;;;;;2.03;1.40;;;;;;;22.68;51.58;95684.53;4998309;28;20291;-86
2021/08/19 10:34:12;;;;;;;1.30;1.20;;;;;;;22.77;51.86;95687.50;4987980;28;20216;-85
2021/08/19 10:36:52;;;;;;;2.00;1.27;;;;;;;22.63;51.21;95681.06;4976696;28;20227;-82
2021/08/19 10:39:38;;;;;;;1.23;1.23;;;;;;;23.07;50.23;95673.84;4975195;28;20214;-82
2021/08/19 10:42:09;;;;;;;1.48;1.33;;;;;;;23.16;50.35;95671.50;4975029;28;20552;-81
2021/08/19 10:44:37;;;;;;;1.70;1.40;;;;;;;23.29;49.58;95677.09;4975074;28;20278;-82
2021/08/19 10:47:05;;;;;;;1.45;1.20;;;;;;;23.22;49.67;95667.88;4989374;28;20618;-87
2021/08/19 10:49:39;;;;;;;1.63;1.35;;;;;;;23.18;50.41;95669.44;4989879;28;20262;-82
2021/08/19 10:52:30;;;;;;;1.75;1.40;;;;;;;23.17;50.89;95665.22;4990868;28;20223;-84
2021/08/19 10:55:17;;;;;;;1.50;1.40;;;;;;;23.45;50.24;95670.13;4978495;28;20200;-86
2021/08/19 10:58:01;;;;;;;1.50;1.40;;;;;;;23.49;49.12;95667.75;4993567;28;20223;-86
2021/08/19 11:00:39;;;;;;;2.95;1.48;;;;;;;23.64;49.86;95673.13;4993117;28;20211;-81
2021/08/19 11:03:06;;;;;;;2.38;1.20;;;;;;;23.92;50.75;95664.81;4994387;28;20223;-81
2021/08/19 11:05:55;;;;;;;1.75;1.50;;;;;;;23.93;49.10;95669.03;4993162;28;20235;-86
2021/08/19 11:08:43;;;;;;;1.40;1.30;;;;;;;23.45;48.14;95662.25;4993724;28;20254;-86
2021/08/19 11:11:11;;;;;;;1.40;1.30;;;;;;;23.31;49.82;95671.59;4995081;28;20230;-82
2021/08/19 11:13:39;;;;;;;1.50;1.40;;;;;;;23.12;49.44;95658.09;4993572;28;20231;-87
2021/08/19 11:16:12;;;;;;;2.28;1.75;;;;;;;23.43;49.16;95654.59;4994217;28;20298;-86
2021/08/19 11:18:41;;;;;;;1.90;1.50;;;;;;;23.61;51.00;95657.88;4993575;28;20663;-86
2021/08/19 11:21:10;;;;;;;1.75;1.65;;;;;;;23.64;51.61;95658.16;4991362;28;20239;-84
2021/08/19 11:23:39;;;;;;;2.75;1.52;;;;;;;23.78;49.80;95650.56;4992106;28;20227;-85
2021/08/19 11:26:08;;;;;;;1.27;1.20;;;;;;;23.59;50.65;95652.06;4993159;28;20203;-85
2021/08/19 11:28:40;;;;;;;3.28;1.38;;;;;;;23.30;51.38;95652.41;4985703;28;20192;-85
2021/08/19 11:31:12;;;;;;;2.00;1.70;;;;;;;23.30;51.23;95651.63;5011661;28;20209;-82
2021/08/19 11:33:42;;;;;;;3.05;1.50;;;;;;;23.44;51.92;95647.50;5011901;28;20219;-82
2021/08/19 11:36:10;;;;;;;1.40;1.30;;;;;;;23.22;51.47;95652.91;5012371;28;20746;-83
2021/08/19 11:38:37;;;;;;;1.50;1.40;;;;;;;23.03;52.08;95651.75;5012193;28;20227;-82
2021/08/19 11:41:16;;;;;;;1.60;1.50;;;;;;;22.91;51.14;95648.47;5008974;28;20203;-86
2021/08/19 11:43:43;;;;;;;2.85;1.80;;;;;;;22.80;51.99;95649.47;4990142;28;20227;-85
2021/08/19 11:46:13;;;;;;;1.52;1.42;;;;;;;22.78;51.57;95644.47;4991839;28;20711;-85
2021/08/19 11:48:52;;;;;;;1.83;1.63;;;;;;;22.80;51.43;95636.34;4980923;28;20211;-84
2021/08/19 11:51:29;;;;;;;1.60;1.50;;;;;;;23.01;51.04;95641.47;4972959;28;20204;-84